CDT,Max TemperatureF,Mean TemperatureF,Min TemperatureF,Max Dew PointF,MeanDew PointF,Min DewpointF,Max Humidity, Mean Humidity, Min Humidity, Max Sea Level PressureIn, Mean Sea Level PressureIn, Min Sea Level PressureIn, Max VisibilityMiles, Mean VisibilityMiles, Min VisibilityMiles, Max Wind SpeedMPH, Mean Wind SpeedMPH, Max Gust SpeedMPH,PrecipitationIn, CloudCover, Events, WindDirDegrees
2011-10-1,64,54,43,41,38,35,89,64,39,30.25,30.20,30.10,10,10,10,20,7,25,0.00,1,,347
2011-10-2,68,53,38,41,37,29,92,58,24,30.30,30.22,30.16,10,10,10,12,4,18,0.00,0,,324
2011-10-3,76,58,40,47,40,37,92,59,25,30.25,30.21,30.17,10,10,10,14,3,17,0.00,0,,280
2011-10-4,82,63,44,53,47,42,93,62,30,30.31,30.25,30.21,10,10,10,7,1,9,0.00,0,,60
2011-10-5,82,65,48,53,49,46,89,59,28,30.30,30.25,30.19,10,10,8,8,1,14,0.00,0,,70
2011-10-6,85,69,52,56,53,49,89,62,34,30.28,30.23,30.20,10,10,10,9,3,17,0.00,0,,96
2011-10-7,83,68,53,56,54,50,93,65,37,30.36,30.29,30.25,10,10,10,9,2,12,0.00,0,,148
2011-10-8,80,66,52,56,52,48,93,63,33,30.40,30.32,30.28,10,8,2,12,3,15,0.00,0,,142
2011-10-9,81,64,47,54,49,45,93,62,30,30.35,30.27,30.19,10,10,5,10,2,16,0.00,0,,78
2011-10-10,81,67,53,55,53,48,89,66,42,30.21,30.13,30.03,10,10,10,10,2,15,0.00,1,,78
2011-10-11,81,67,52,56,54,50,96,68,39,30.02,29.96,29.90,10,10,8,8,2,12,0.00,0,,79
2011-10-12,76,65,53,61,59,51,93,75,57,29.89,29.79,29.68,10,6,1,16,4,21,0.79,5,Rain-Thunderstorm,360
2011-10-13,69,62,54,61,57,46,97,80,63,29.68,29.62,29.57,10,8,3,18,6,25,0.23,7,Rain,246
2011-10-14,70,60,50,46,41,35,77,53,28,29.92,29.80,29.69,10,10,10,28,9,40,0.00,0,,271
2011-10-15,68,58,47,42,38,35,74,53,32,30.08,30.03,29.93,10,10,10,22,7,28,0.00,0,,267
2011-10-16,83,66,49,52,45,38,77,55,33,30.05,29.93,29.81,10,10,10,23,12,32,0.00,1,,232
2011-10-17,69,59,48,44,37,30,80,53,26,30.01,29.94,29.87,10,10,10,15,3,20,0.00,3,,2
2011-10-18,52,49,46,45,42,37,86,73,59,29.87,29.80,29.72,10,9,3,16,9,24,0.22,7,Rain-Thunderstorm,356
2011-10-19,48,46,43,43,41,38,89,86,82,29.69,29.62,29.56,10,7,1,23,13,35,0.26,8,Rain,315
2011-10-20,54,48,41,39,36,33,89,70,50,30.02,29.80,29.61,10,10,6,24,11,31,0.08,7,Rain,274
2011-10-21,60,48,35,37,34,32,86,61,36,30.17,30.12,30.03,10,10,10,14,4,17,0.00,0,,281
2011-10-22,68,51,33,42,38,33,92,63,34,30.20,30.13,30.05,10,10,8,9,2,15,0.00,0,,207
2011-10-23,66,54,42,48,44,39,89,69,48,30.10,30.06,30.02,10,10,8,10,2,14,T,2,,197
2011-10-24,72,58,44,51,42,35,82,55,28,30.21,30.13,30.05,10,10,10,18,6,24,0.00,0,,269
2011-10-25,78,59,40,47,42,36,92,63,33,30.21,30.08,29.93,10,10,10,22,8,26,0.00,0,,189
2011-10-26,69,60,51,59,53,48,96,76,56,29.94,29.88,29.85,10,6,2,16,8,20,0.83,7,Rain-Thunderstorm,283
2011-10-27,54,47,39,48,43,36,86,70,54,30.16,29.99,29.88,10,9,5,15,7,22,0.08,6,Rain,341
2011-10-28,56,47,37,39,36,30,86,64,41,30.20,30.16,30.12,10,10,8,13,4,18,0.00,3,,30
2011-10-29,62,48,33,37,30,23,92,58,23,30.18,30.15,30.11,10,10,6,17,3,24,0.00,0,,319
2011-10-30,63,49,35,34,32,29,89,58,27,30.26,30.16,30.08,10,10,10,18,7,23,T,2,,186
2011-10-31,61,48,35,39,33,28,82,56,29,30.22,30.13,30.07,10,10,10,21,6,26,0.00,1,Rain,240